Time;durP1;ratioP1;P1;durP2;ratioP2;P2;SDS_P1;SDS_P2;PMS_P1;PMS_P2;Temp;Humidity;BMP_temperature;BMP_pressure;BME280_temperature;BME280_humidity;BME280_pressure;Samples;Min_cycle;Max_cycle;Signal;HPM_P1;HPM_P2
2022/03/19 00:00:42;;;;;;;4.10;2.57;;;19.40;44.20;;;;;;4995002;28;20453;-84
2022/03/19 00:03:10;;;;;;;4.47;2.40;;;19.40;44.20;;;;;;4996891;28;20441;-83
2022/03/19 00:05:38;;;;;;;4.40;2.13;;;19.40;44.20;;;;;;4994478;28;20446;-83
2022/03/19 00:08:07;;;;;;;4.63;2.40;;;19.30;44.20;;;;;;4993988;28;20488;-83
2022/03/19 00:10:35;;;;;;;4.77;2.30;;;19.30;44.20;;;;;;4992913;28;20481;-84
2022/03/19 00:13:03;;;;;;;4.50;1.97;;;19.30;44.20;;;;;;4993948;28;20500;-84
2022/03/19 00:15:31;;;;;;;2.57;1.90;;;19.20;44.20;;;;;;4993564;28;21019;-84
2022/03/19 00:17:59;;;;;;;2.80;2.37;;;19.20;44.30;;;;;;4992743;28;20480;-84
2022/03/19 00:20:28;;;;;;;3.83;2.13;;;19.30;44.90;;;;;;4994414;28;20540;-84
2022/03/19 00:22:56;;;;;;;2.90;2.50;;;19.20;44.20;;;;;;4992001;28;20437;-85
2022/03/19 00:25:26;;;;;;;3.97;2.23;;;19.20;44.30;;;;;;4995668;28;20516;-83
2022/03/19 00:27:53;;;;;;;4.33;2.23;;;19.10;44.40;;;;;;4991758;28;20528;-83
2022/03/19 00:30:22;;;;;;;4.07;2.20;;;19.10;44.90;;;;;;4994603;28;20531;-83
2022/03/19 00:32:51;;;;;;;3.60;2.40;;;19.10;44.40;;;;;;4996011;28;20449;-83
2022/03/19 00:35:19;;;;;;;3.33;2.30;;;19.00;44.30;;;;;;4995771;28;20541;-83
2022/03/19 00:37:48;;;;;;;3.97;2.13;;;19.00;44.50;;;;;;4995312;28;20504;-83
2022/03/19 00:40:16;;;;;;;3.40;2.07;;;19.00;44.50;;;;;;4995318;28;20589;-83
2022/03/19 00:42:47;;;;;;;6.63;2.30;;;19.00;44.50;;;;;;4997896;28;20474;-83
2022/03/19 00:45:15;;;;;;;5.27;2.30;;;18.90;44.50;;;;;;4995287;28;20472;-84
2022/03/19 00:47:43;;;;;;;6.30;2.17;;;18.90;44.60;;;;;;4998669;28;20537;-84
2022/03/19 00:50:12;;;;;;;3.10;2.37;;;18.90;44.60;;;;;;4996007;28;20540;-83
2022/03/19 00:52:40;;;;;;;3.83;2.20;;;18.90;44.60;;;;;;4997270;28;20476;-84
2022/03/19 00:55:08;;;;;;;3.07;2.00;;;18.90;44.60;;;;;;4997638;28;20512;-83
2022/03/19 00:57:43;;;;;;;5.07;2.60;;;18.80;44.50;;;;;;4993600;28;20477;-84
2022/03/19 01:00:15;;;;;;;5.57;2.03;;;18.90;44.60;;;;;;4995735;28;20448;-82
2022/03/19 01:02:43;;;;;;;3.93;2.23;;;18.80;44.50;;;;;;4994572;28;20450;-83
2022/03/19 01:05:12;;;;;;;4.33;2.23;;;18.80;44.60;;;;;;4993876;28;20480;-83
2022/03/19 01:07:42;;;;;;;7.43;2.47;;;18.70;44.60;;;;;;4994705;28;20461;-83
2022/03/19 01:10:11;;;;;;;2.50;1.77;;;18.70;44.50;;;;;;4993519;28;20476;-84
2022/03/19 01:12:39;;;;;;;3.97;1.80;;;18.70;44.60;;;;;;4993246;28;20561;-83
2022/03/19 01:15:08;;;;;;;4.30;2.27;;;18.70;44.70;;;;;;4993301;28;20484;-83
2022/03/19 01:17:38;;;;;;;5.57;2.63;;;18.60;44.50;;;;;;4993515;28;20499;-84
2022/03/19 01:20:06;;;;;;;4.10;2.00;;;18.60;44.70;;;;;;5005372;28;20519;-83
2022/03/19 01:22:34;;;;;;;4.00;2.10;;;18.60;44.70;;;;;;5005223;28;20526;-85
2022/03/19 01:25:05;;;;;;;4.60;2.20;;;18.60;44.70;;;;;;4998156;28;20500;-84
2022/03/19 01:27:33;;;;;;;3.83;1.70;;;18.60;44.80;;;;;;4993491;28;20484;-84
2022/03/19 01:30:01;;;;;;;3.73;2.20;;;18.50;44.70;;;;;;4994373;28;20548;-83
2022/03/19 01:32:29;;;;;;;4.30;2.13;;;18.50;44.80;;;;;;4997258;28;20485;-84
2022/03/19 01:34:58;;;;;;;2.70;2.10;;;18.50;44.80;;;;;;4996348;28;20449;-84
2022/03/19 01:37:26;;;;;;;2.27;1.70;;;18.50;44.80;;;;;;4996553;28;20464;-84
2022/03/19 01:39:55;;;;;;;4.80;2.37;;;18.50;44.80;;;;;;4996592;28;20481;-85
2022/03/19 01:42:24;;;;;;;3.87;1.87;;;18.40;44.70;;;;;;5002453;28;20507;-86
2022/03/19 01:44:52;;;;;;;4.80;1.83;;;18.40;44.90;;;;;;5004296;28;20537;-84
2022/03/19 01:47:21;;;;;;;2.93;2.00;;;18.40;45.20;;;;;;4995922;28;20568;-84
2022/03/19 01:49:49;;;;;;;2.10;1.83;;;18.40;44.90;;;;;;4997188;28;20476;-83
2022/03/19 01:52:18;;;;;;;5.73;2.10;;;18.30;44.80;;;;;;5007185;28;20437;-81
2022/03/19 01:54:48;;;;;;;5.17;2.13;;;18.30;44.90;;;;;;5016914;28;20433;-80
2022/03/19 01:57:17;;;;;;;2.80;1.90;;;18.30;44.90;;;;;;5001163;28;20449;-80
2022/03/19 01:59:45;;;;;;;3.13;2.37;;;18.30;45.00;;;;;;5008647;28;20472;-83
2022/03/19 02:02:13;;;;;;;1.90;1.63;;;18.20;44.90;;;;;;5004383;28;20464;-84
2022/03/19 02:04:42;;;;;;;2.83;1.97;;;18.20;45.30;;;;;;4987615;28;20442;-84
2022/03/19 02:07:11;;;;;;;3.37;2.00;;;18.20;45.10;;;;;;4995930;28;20568;-84
2022/03/19 02:09:40;;;;;;;6.20;2.60;;;18.10;44.90;;;;;;4995119;28;20468;-84
2022/03/19 02:12:09;;;;;;;5.20;2.13;;;18.10;44.90;;;;;;4996190;28;20484;-84
2022/03/19 02:14:38;;;;;;;3.00;1.87;;;18.10;45.00;;;;;;4995538;28;20521;-84
2022/03/19 02:17:06;;;;;;;5.50;2.17;;;18.10;45.00;;;;;;5004547;28;20892;-87
2022/03/19 02:19:35;;;;;;;2.63;1.80;;;18.10;45.00;;;;;;5016003;28;20477;-85
2022/03/19 02:22:03;;;;;;;3.37;2.13;;;18.00;45.00;;;;;;5004478;28;20445;-84
2022/03/19 02:27:18;;;;;;;3.93;2.33;;;18.00;45.10;;;;;;5002587;28;20523;-84
2022/03/19 02:29:46;;;;;;;6.10;3.33;;;18.00;45.00;;;;;;5003344;28;20445;-84
2022/03/19 02:32:14;;;;;;;4.20;2.40;;;18.00;45.10;;;;;;5001192;28;20544;-83
2022/03/19 02:34:42;;;;;;;4.30;2.47;;;17.90;45.10;;;;;;5000531;28;20465;-83
2022/03/19 02:37:10;;;;;;;5.10;2.50;;;17.90;45.10;;;;;;5003278;28;20488;-84
2022/03/19 02:39:39;;;;;;;3.37;2.80;;;17.90;45.10;;;;;;5001156;28;20564;-84
2022/03/19 02:42:08;;;;;;;5.50;2.07;;;17.90;45.00;;;;;;5003218;28;20472;-84
2022/03/19 02:44:36;;;;;;;2.90;2.00;;;17.90;45.20;;;;;;5004818;28;20484;-84
2022/03/19 02:47:05;;;;;;;2.57;1.57;;;17.80;45.20;;;;;;5004727;28;20469;-84
2022/03/19 02:49:33;;;;;;;5.50;2.23;;;17.80;45.10;;;;;;5004942;28;20468;-84
2022/03/19 02:52:01;;;;;;;3.33;2.27;;;17.80;45.10;;;;;;5004940;28;20544;-84
2022/03/19 02:54:30;;;;;;;2.60;2.27;;;17.80;45.20;;;;;;5006198;28;20468;-84
2022/03/19 02:56:59;;;;;;;3.27;2.07;;;17.80;45.20;;;;;;5004884;28;20465;-83
2022/03/19 02:59:34;;;;;;;2.47;2.27;;;17.70;45.20;;;;;;5004060;28;20540;-84
2022/03/19 03:02:03;;;;;;;2.73;2.20;;;17.70;45.10;;;;;;4995794;28;20464;-84
2022/03/19 03:04:31;;;;;;;2.07;1.97;;;17.70;45.20;;;;;;4998895;28;20473;-84
2022/03/19 03:07:00;;;;;;;5.27;3.00;;;17.60;45.20;;;;;;5003594;28;20480;-84
2022/03/19 03:09:29;;;;;;;4.13;2.00;;;17.60;45.30;;;;;;5005609;28;20453;-84
2022/03/19 03:12:01;;;;;;;2.70;1.90;;;17.60;45.30;;;;;;5004814;28;20472;-84
2022/03/19 03:14:29;;;;;;;5.27;2.57;;;17.60;45.40;;;;;;5004695;28;20477;-84
2022/03/19 03:17:00;;;;;;;7.00;2.60;;;17.50;45.20;;;;;;5004181;28;20496;-84
2022/03/19 03:19:32;;;;;;;3.27;2.33;;;17.50;45.20;;;;;;5003396;28;20477;-84
2022/03/19 03:22:00;;;;;;;2.53;2.17;;;17.50;45.30;;;;;;5005107;28;20507;-84
2022/03/19 03:24:29;;;;;;;2.70;1.87;;;17.50;45.40;;;;;;5003701;28;20508;-84
2022/03/19 03:26:57;;;;;;;4.20;2.30;;;17.40;45.40;;;;;;5004388;28;20476;-83
2022/03/19 03:29:26;;;;;;;3.07;1.97;;;17.40;45.40;;;;;;5005539;28;20453;-83
2022/03/19 03:31:54;;;;;;;3.80;1.90;;;17.40;45.50;;;;;;5005005;28;20473;-83
2022/03/19 03:34:22;;;;;;;6.10;2.03;;;17.40;46.10;;;;;;5005400;28;20445;-84
2022/03/19 03:36:50;;;;;;;4.90;2.13;;;17.40;46.10;;;;;;5004611;28;20524;-84
2022/03/19 03:39:20;;;;;;;3.23;2.10;;;17.30;45.40;;;;;;5003484;28;20476;-83
2022/03/19 03:41:48;;;;;;;2.40;2.10;;;17.30;45.30;;;;;;5004655;28;20445;-84
2022/03/19 03:44:16;;;;;;;3.00;2.30;;;17.30;45.50;;;;;;5003544;28;20516;-83
2022/03/19 03:46:46;;;;;;;2.00;1.90;;;17.30;45.60;;;;;;5004237;28;20484;-84
2022/03/19 03:49:14;;;;;;;3.33;2.00;;;17.30;45.60;;;;;;5005025;28;20536;-84
2022/03/19 03:51:42;;;;;;;5.30;2.27;;;17.20;45.50;;;;;;5005327;28;20457;-84
2022/03/19 03:54:10;;;;;;;4.80;2.30;;;17.20;45.50;;;;;;5004900;28;20460;-84
2022/03/19 03:56:38;;;;;;;4.50;2.20;;;17.20;45.70;;;;;;5006092;28;20465;-84
2022/03/19 03:59:06;;;;;;;3.53;2.70;;;17.10;45.50;;;;;;5004210;28;20473;-84
2022/03/19 04:01:34;;;;;;;3.20;1.97;;;17.10;45.50;;;;;;5004749;28;20473;-85
2022/03/19 04:04:04;;;;;;;2.83;2.00;;;17.10;45.70;;;;;;5004264;28;20556;-84
2022/03/19 04:06:33;;;;;;;5.83;3.03;;;17.10;45.70;;;;;;5004051;28;20465;-84
2022/03/19 04:09:01;;;;;;;7.47;2.30;;;17.00;45.70;;;;;;5003482;28;20449;-84
2022/03/19 04:11:28;;;;;;;2.70;1.90;;;17.00;45.60;;;;;;5002941;28;20450;-84
2022/03/19 04:13:59;;;;;;;2.10;1.90;;;17.00;45.70;;;;;;5004046;28;20477;-83
2022/03/19 04:16:28;;;;;;;2.80;1.70;;;17.00;45.70;;;;;;5004787;28;20473;-84
2022/03/19 04:18:56;;;;;;;2.13;1.90;;;17.00;45.60;;;;;;5003798;28;20457;-84
2022/03/19 04:21:25;;;;;;;4.17;2.57;;;17.00;45.60;;;;;;5004671;28;20541;-85
2022/03/19 04:23:53;;;;;;;3.60;1.77;;;17.00;45.70;;;;;;5005142;28;20473;-84
2022/03/19 04:26:21;;;;;;;2.50;2.10;;;16.90;45.60;;;;;;5003247;28;20516;-84
2022/03/19 04:28:49;;;;;;;4.23;1.83;;;16.90;45.70;;;;;;5003475;28;20491;-85
2022/03/19 04:31:17;;;;;;;8.23;2.70;;;16.90;45.70;;;;;;5004741;28;20499;-82
2022/03/19 04:33:45;;;;;;;2.00;1.80;;;16.90;45.70;;;;;;5003702;28;20472;-85
2022/03/19 04:36:32;;;;;;;3.73;2.47;;;16.90;45.80;;;;;;5004406;28;20453;-85
2022/03/19 04:39:02;;;;;;;2.73;1.90;;;16.90;45.90;;;;;;5005329;28;20457;-84
2022/03/19 04:41:31;;;;;;;2.67;2.13;;;16.80;45.80;;;;;;5004259;28;20477;-83
2022/03/19 04:43:59;;;;;;;4.57;2.13;;;16.80;45.70;;;;;;5004501;28;20533;-83
2022/03/19 04:46:27;;;;;;;2.80;1.97;;;16.80;45.70;;;;;;5001945;28;20496;-83
2022/03/19 04:48:56;;;;;;;7.80;2.23;;;16.80;45.80;;;;;;4996883;28;20449;-83
2022/03/19 04:51:28;;;;;;;3.53;2.27;;;16.70;45.80;;;;;;4999529;28;20505;-84
2022/03/19 04:53:56;;;;;;;3.63;2.23;;;16.70;45.90;;;;;;5000328;28;20479;-84
2022/03/19 04:56:26;;;;;;;3.93;2.30;;;16.70;45.90;;;;;;4999682;28;20852;-83
2022/03/19 04:58:56;;;;;;;4.60;2.17;;;16.70;45.90;;;;;;4998032;28;20536;-83
2022/03/19 05:01:25;;;;;;;3.63;2.53;;;16.70;45.90;;;;;;4999632;28;20508;-82
2022/03/19 05:03:54;;;;;;;4.70;2.47;;;16.70;45.90;;;;;;4999361;28;20532;-83
2022/03/19 05:06:22;;;;;;;3.53;2.10;;;16.60;45.90;;;;;;4997825;28;20496;-83
2022/03/19 05:11:12;;;;;;;2.43;1.97;;;16.60;45.90;;;;;;4997474;28;20483;-83
2022/03/19 05:11:39;;;;;;;3.03;2.40;;;16.60;45.90;;;;;;4997886;28;20534;-83
2022/03/19 05:14:07;;;;;;;3.00;1.97;;;16.60;45.90;;;;;;5001461;28;20560;-84
2022/03/19 05:16:35;;;;;;;2.30;2.20;;;16.60;45.90;;;;;;5004059;28;20484;-84
2022/03/19 05:19:03;;;;;;;3.00;2.03;;;16.50;45.90;;;;;;5004722;28;20481;-84
2022/03/19 05:21:32;;;;;;;4.70;1.87;;;16.50;46.00;;;;;;5009390;28;20513;-82
2022/03/19 05:24:00;;;;;;;2.33;2.13;;;16.50;45.90;;;;;;5010669;28;20437;-83
2022/03/19 05:26:28;;;;;;;2.20;1.97;;;16.50;46.00;;;;;;5006787;28;20502;-84
2022/03/19 05:28:57;;;;;;;2.40;2.17;;;16.50;46.00;;;;;;5002106;28;20488;-84
2022/03/19 05:31:36;;;;;;;3.10;1.80;;;16.50;46.00;;;;;;5002795;28;20453;-83
2022/03/19 05:36:50;;;;;;;2.97;2.17;;;16.40;46.00;;;;;;5005433;28;20468;-84
2022/03/19 05:39:18;;;;;;;4.77;2.17;;;16.40;46.00;;;;;;5004512;28;20480;-82
2022/03/19 05:41:46;;;;;;;3.73;2.47;;;16.40;46.00;;;;;;5006828;28;20465;-84
2022/03/19 05:44:15;;;;;;;4.00;2.07;;;16.40;46.10;;;;;;5005993;28;20485;-84
2022/03/19 05:46:43;;;;;;;3.27;2.20;;;16.40;46.10;;;;;;5006496;28;20458;-84
2022/03/19 05:49:11;;;;;;;2.27;1.63;;;16.30;46.00;;;;;;5005125;28;20564;-84
2022/03/19 05:51:39;;;;;;;4.50;2.20;;;16.40;46.00;;;;;;5005984;28;20501;-82
2022/03/19 05:54:07;;;;;;;3.93;2.20;;;16.30;46.00;;;;;;4998758;28;20488;-83
2022/03/19 05:56:35;;;;;;;6.87;2.63;;;16.30;46.10;;;;;;4998219;28;20500;-83
2022/03/19 05:59:03;;;;;;;4.00;1.87;;;16.30;46.00;;;;;;4998363;28;20532;-82
2022/03/19 06:01:32;;;;;;;3.77;2.10;;;16.30;46.00;;;;;;4997452;28;20559;-84
2022/03/19 06:04:01;;;;;;;4.57;2.50;;;16.30;46.10;;;;;;4996664;28;20453;-84
2022/03/19 06:06:29;;;;;;;4.37;2.30;;;16.40;46.20;;;;;;4997461;28;20536;-83
2022/03/19 06:08:57;;;;;;;2.87;2.10;;;16.40;46.10;;;;;;4998081;28;20445;-84
2022/03/19 06:11:25;;;;;;;2.80;2.10;;;16.40;46.00;;;;;;5005092;28;20437;-84
2022/03/19 06:13:53;;;;;;;3.63;2.10;;;16.40;46.00;;;;;;5005532;28;20480;-85
2022/03/19 06:16:21;;;;;;;4.00;2.50;;;16.40;46.10;;;;;;5005341;28;20465;-84
2022/03/19 06:18:51;;;;;;;3.83;2.33;;;16.40;46.10;;;;;;5005366;28;20492;-84
2022/03/19 06:21:19;;;;;;;6.53;2.40;;;16.40;45.90;;;;;;5004906;28;20498;-83
2022/03/19 06:23:47;;;;;;;3.50;2.40;;;16.40;45.90;;;;;;5003891;28;20448;-83
2022/03/19 06:26:15;;;;;;;4.47;2.07;;;16.40;45.90;;;;;;5004690;28;20519;-83
2022/03/19 06:28:43;;;;;;;2.33;2.10;;;16.40;46.10;;;;;;5002026;28;20504;-84
2022/03/19 06:31:11;;;;;;;1.90;1.80;;;16.40;46.00;;;;;;5011898;28;20453;-83
2022/03/19 06:33:40;;;;;;;3.87;2.30;;;16.40;45.80;;;;;;5006327;28;20536;-84
2022/03/19 06:38:55;;;;;;;4.03;2.20;;;16.50;45.90;;;;;;5006262;28;20460;-84
2022/03/19 06:41:23;;;;;;;4.27;2.23;;;16.50;45.90;;;;;;5008765;28;20472;-83
2022/03/19 06:43:51;;;;;;;7.47;2.67;;;16.60;45.90;;;;;;5007117;28;20481;-84
2022/03/19 06:46:19;;;;;;;2.37;2.17;;;16.70;46.00;;;;;;5004797;28;20472;-84
2022/03/19 06:48:49;;;;;;;2.20;2.00;;;16.80;45.60;;;;;;5004891;28;20476;-84
2022/03/19 06:51:19;;;;;;;3.33;2.50;;;16.90;45.60;;;;;;5003525;28;20460;-83
2022/03/19 06:53:47;;;;;;;2.90;2.00;;;17.00;45.10;;;;;;5004854;28;20480;-83
2022/03/19 06:56:15;;;;;;;2.40;2.10;;;17.00;45.20;;;;;;5006651;28;20485;-83
2022/03/19 06:58:43;;;;;;;4.23;2.30;;;17.10;45.20;;;;;;5006208;28;20488;-83
2022/03/19 07:01:15;;;;;;;4.53;2.07;;;17.20;44.90;;;;;;5006700;28;20496;-83
2022/03/19 07:03:44;;;;;;;3.10;2.20;;;17.30;45.00;;;;;;5013747;28;20512;-83
2022/03/19 07:06:12;;;;;;;4.33;2.40;;;17.30;45.00;;;;;;5015830;28;20495;-82
2022/03/19 07:09:02;;;;;;;3.20;2.00;;;17.40;45.00;;;;;;5010711;28;20444;-83
2022/03/19 07:11:30;;;;;;;2.83;2.17;;;17.50;44.50;;;;;;5008421;28;20480;-82
2022/03/19 07:14:01;;;;;;;2.10;1.90;;;17.60;45.30;;;;;;5011886;28;20450;-81
2022/03/19 07:16:29;;;;;;;4.20;2.60;;;17.70;44.60;;;;;;5018762;28;20446;-83
2022/03/19 07:18:57;;;;;;;5.40;2.60;;;17.60;44.60;;;;;;5017497;28;20472;-83
2022/03/19 07:21:25;;;;;;;4.93;1.90;;;17.70;44.60;;;;;;5017155;28;20476;-81
2022/03/19 07:23:54;;;;;;;2.47;2.27;;;17.70;44.70;;;;;;5017334;28;20455;-82
2022/03/19 07:26:23;;;;;;;2.53;1.90;;;17.80;44.40;;;;;;5014190;28;20484;-84
2022/03/19 07:28:51;;;;;;;2.03;1.83;;;17.80;44.60;;;;;;5018385;28;20469;-82
2022/03/19 07:31:19;;;;;;;2.57;2.07;;;17.80;44.30;;;;;;5019507;28;20453;-84
2022/03/19 07:33:47;;;;;;;4.30;2.20;;;17.80;44.40;;;;;;5019630;28;20425;-81
2022/03/19 07:36:15;;;;;;;2.90;2.10;;;17.90;44.40;;;;;;5014355;28;20450;-79
2022/03/19 07:38:43;;;;;;;2.63;1.93;;;17.80;44.30;;;;;;5018824;28;20449;-81
2022/03/19 07:43:59;;;;;;;3.13;2.20;;;17.70;44.80;;;;;;5016306;28;20485;-82
2022/03/19 07:46:27;;;;;;;2.97;1.93;;;17.80;44.80;;;;;;5008260;28;20461;-83
2022/03/19 07:48:55;;;;;;;2.70;1.90;;;17.80;44.90;;;;;;5009546;28;20469;-83
2022/03/19 07:51:24;;;;;;;5.20;2.40;;;17.90;44.60;;;;;;5008607;28;20480;-84
2022/03/19 07:53:52;;;;;;;3.37;2.30;;;18.00;44.60;;;;;;5009384;28;20465;-84
2022/03/19 07:56:20;;;;;;;3.50;2.20;;;18.00;44.70;;;;;;5008605;28;20489;-83
2022/03/19 07:58:50;;;;;;;4.13;2.17;;;18.10;44.30;;;;;;5009180;28;20479;-84
2022/03/19 08:01:20;;;;;;;2.37;2.07;;;18.10;44.30;;;;;;5007524;28;20468;-85
2022/03/19 08:03:48;;;;;;;2.70;1.93;;;18.20;44.50;;;;;;5008842;28;20461;-84
2022/03/19 08:06:17;;;;;;;2.00;1.80;;;18.10;44.60;;;;;;5010902;28;20469;-82
2022/03/19 08:08:45;;;;;;;3.63;2.00;;;18.00;44.80;;;;;;5018573;28;20425;-82
2022/03/19 08:11:14;;;;;;;2.60;2.03;;;17.80;45.30;;;;;;5018539;28;20434;-82
2022/03/19 08:13:42;;;;;;;2.30;2.10;;;17.80;45.70;;;;;;5016479;28;20462;-82
2022/03/19 08:16:10;;;;;;;1.80;1.70;;;17.80;45.90;;;;;;5013714;28;20463;-84
2022/03/19 08:18:39;;;;;;;2.07;1.70;;;17.80;46.10;;;;;;5004459;28;20460;-83
2022/03/19 08:21:07;;;;;;;3.47;2.10;;;17.90;46.00;;;;;;5005753;28;20444;-84
2022/03/19 08:23:35;;;;;;;3.47;2.13;;;18.10;46.10;;;;;;5010488;28;20532;-83
2022/03/19 08:26:03;;;;;;;2.80;2.10;;;18.20;46.20;;;;;;5016839;28;20464;-81
2022/03/19 08:28:31;;;;;;;4.73;1.80;;;18.40;46.00;;;;;;5018844;28;20481;-81
2022/03/19 08:30:59;;;;;;;2.77;1.53;;;18.60;46.20;;;;;;5013995;28;20521;-83
2022/03/19 08:33:27;;;;;;;2.93;2.10;;;18.70;46.10;;;;;;5005546;28;20515;-84
2022/03/19 08:35:57;;;;;;;1.83;1.73;;;18.80;46.40;;;;;;4997084;28;20548;-83
2022/03/19 08:41:11;;;;;;;3.00;2.20;;;19.20;46.50;;;;;;4995538;28;20539;-83
2022/03/19 08:43:39;;;;;;;2.60;2.07;;;19.40;46.50;;;;;;4996564;28;20512;-83
2022/03/19 08:46:07;;;;;;;3.13;1.83;;;19.60;46.50;;;;;;4994821;28;20569;-83
2022/03/19 08:48:35;;;;;;;4.93;2.37;;;19.90;46.30;;;;;;4997407;28;20468;-83
2022/03/19 08:53:49;;;;;;;3.33;2.57;;;20.30;46.20;;;;;;4995822;28;20525;-82
2022/03/19 08:56:18;;;;;;;3.37;1.97;;;20.60;46.20;;;;;;4998259;28;20490;-83
2022/03/19 08:58:46;;;;;;;3.83;2.10;;;20.70;46.10;;;;;;4999126;28;20504;-84
2022/03/19 09:01:14;;;;;;;2.40;1.77;;;20.90;46.10;;;;;;4998681;28;20453;-82
2022/03/19 09:03:42;;;;;;;2.27;2.07;;;21.20;45.90;;;;;;4997546;28;20487;-83
2022/03/19 09:06:14;;;;;;;2.60;2.00;;;21.40;45.50;;;;;;4998001;28;20473;-82
2022/03/19 09:08:42;;;;;;;1.90;1.80;;;21.70;45.40;;;;;;4998740;28;20457;-83
2022/03/19 09:11:11;;;;;;;2.43;2.20;;;21.90;45.40;;;;;;4995435;28;20956;-83
2022/03/19 09:13:39;;;;;;;1.83;1.73;;;22.00;45.30;;;;;;4994791;28;20450;-83
2022/03/19 09:16:07;;;;;;;2.50;2.13;;;22.20;45.20;;;;;;4994855;28;20444;-83
2022/03/19 09:18:35;;;;;;;2.17;1.70;;;22.40;45.10;;;;;;4994675;28;20499;-84
2022/03/19 09:21:04;;;;;;;3.73;1.60;;;22.70;44.90;;;;;;4994276;28;20445;-83
2022/03/19 09:23:34;;;;;;;1.83;1.70;;;22.80;44.80;;;;;;4994594;28;21039;-84
2022/03/19 09:26:02;;;;;;;2.90;2.20;;;23.00;44.50;;;;;;4996224;28;20493;-84
2022/03/19 09:28:30;;;;;;;3.20;2.17;;;23.30;44.20;;;;;;4999885;28;20517;-83
2022/03/19 09:30:58;;;;;;;2.10;1.90;;;23.50;44.20;;;;;;4997988;28;20514;-80
2022/03/19 09:33:26;;;;;;;4.27;2.00;;;23.80;43.90;;;;;;4998630;28;20478;-81
2022/03/19 09:35:54;;;;;;;1.87;1.73;;;24.10;43.60;;;;;;4997385;28;20500;-82
2022/03/19 09:38:22;;;;;;;2.80;2.00;;;24.20;43.30;;;;;;4997575;28;20424;-82
2022/03/19 09:40:52;;;;;;;3.90;1.90;;;24.40;43.20;;;;;;4998928;28;20478;-80
2022/03/19 09:43:21;;;;;;;3.80;1.63;;;24.70;42.80;;;;;;4983615;28;20523;-82
2022/03/19 09:45:52;;;;;;;7.13;2.37;;;24.90;42.40;;;;;;4995131;28;20483;-81
2022/03/19 09:48:20;;;;;;;14.80;2.53;;;25.10;38.20;;;;;;5005632;28;20452;-83
2022/03/19 09:50:50;;;;;;;14.67;2.90;;;25.50;35.00;;;;;;5003393;28;20483;-83
2022/03/19 09:53:18;;;;;;;5.77;2.20;;;25.70;33.90;;;;;;5004770;28;20427;-83
2022/03/19 09:55:46;;;;;;;21.33;2.97;;;25.80;34.00;;;;;;5001996;28;20480;-83
2022/03/19 09:58:16;;;;;;;6.83;2.03;;;26.00;33.50;;;;;;5004905;28;20506;-83
2022/03/19 10:00:44;;;;;;;16.43;2.43;;;26.00;33.40;;;;;;5005747;28;20415;-84
2022/03/19 10:03:13;;;;;;;8.33;2.47;;;26.30;33.00;;;;;;5006332;28;20455;-83
2022/03/19 10:08:39;;;;;;;9.33;2.43;;;26.50;32.20;;;;;;5004762;28;20445;-83
2022/03/19 10:11:07;;;;;;;6.67;2.53;;;26.60;32.20;;;;;;5006687;28;20446;-84
2022/03/19 10:13:40;;;;;;;2.70;2.13;;;26.80;31.90;;;;;;5007135;28;20451;-84
2022/03/19 10:16:08;;;;;;;3.80;2.10;;;26.80;31.70;;;;;;5000294;28;20463;-84
2022/03/19 10:18:37;;;;;;;4.33;1.73;;;27.00;31.50;;;;;;5003130;28;20420;-83
2022/03/19 10:21:13;;;;;;;8.10;2.47;;;27.00;31.40;;;;;;5006656;28;20439;-84
2022/03/19 10:23:47;;;;;;;3.43;2.37;;;27.20;31.30;;;;;;5006104;28;20448;-84
2022/03/19 10:26:25;;;;;;;7.23;1.80;;;27.30;31.20;;;;;;5005084;28;20443;-83
2022/03/19 10:28:59;;;;;;;6.97;1.80;;;27.40;31.00;;;;;;5006335;28;20423;-84
2022/03/19 10:31:31;;;;;;;5.40;1.80;;;27.40;30.70;;;;;;5004658;28;20483;-83
2022/03/19 10:33:59;;;;;;;6.60;1.97;;;27.50;30.50;;;;;;5005413;28;20469;-83
2022/03/19 10:36:32;;;;;;;3.87;1.60;;;27.60;30.30;;;;;;5006004;28;20473;-85
2022/03/19 10:39:00;;;;;;;4.70;1.87;;;27.60;30.10;;;;;;5006025;28;20435;-83
2022/03/19 10:41:29;;;;;;;4.50;1.80;;;27.60;29.90;;;;;;5009508;28;20543;-81
2022/03/19 10:43:58;;;;;;;3.90;1.70;;;27.70;29.90;;;;;;5008359;28;20470;-83
2022/03/19 10:46:26;;;;;;;2.30;1.70;;;27.80;29.90;;;;;;5006537;28;20481;-83
2022/03/19 10:48:55;;;;;;;4.47;1.50;;;27.80;29.60;;;;;;4987079;28;20479;-83
2022/03/19 10:51:23;;;;;;;1.80;1.53;;;27.70;29.40;;;;;;4988601;28;20420;-83
2022/03/19 10:53:52;;;;;;;4.13;2.30;;;27.60;29.20;;;;;;4988457;28;20440;-83
2022/03/19 10:56:20;;;;;;;3.40;1.50;;;27.60;28.90;;;;;;4989509;28;20497;-82
2022/03/19 10:59:03;;;;;;;2.73;1.80;;;27.60;28.90;;;;;;4991577;28;20435;-83
2022/03/19 11:01:31;;;;;;;5.00;1.50;;;27.60;28.70;;;;;;4990556;28;20485;-84
2022/03/19 11:03:59;;;;;;;4.53;1.60;;;27.60;28.50;;;;;;5007999;28;20448;-84
2022/03/19 11:06:27;;;;;;;2.37;1.73;;;27.60;28.40;;;;;;5006230;28;20444;-84
2022/03/19 11:08:56;;;;;;;1.93;1.60;;;27.70;28.30;;;;;;5005833;28;20457;-84
2022/03/19 11:11:29;;;;;;;2.60;1.30;;;27.60;28.00;;;;;;5006008;28;20424;-86
2022/03/19 11:13:58;;;;;;;2.57;1.60;;;27.70;27.80;;;;;;5005072;28;20442;-83
2022/03/19 11:16:28;;;;;;;2.07;1.23;;;27.70;27.20;;;;;;5005589;28;20448;-85
2022/03/19 11:18:57;;;;;;;1.80;1.30;;;27.80;27.10;;;;;;5004756;28;20455;-84
2022/03/19 11:21:26;;;;;;;3.30;1.50;;;28.00;27.10;;;;;;5006113;28;20450;-84
2022/03/19 11:23:56;;;;;;;2.37;1.30;;;28.40;26.70;;;;;;5008697;28;20445;-83
2022/03/19 11:26:25;;;;;;;2.37;1.33;;;29.20;26.00;;;;;;5014180;28;20475;-83
2022/03/19 11:28:53;;;;;;;3.13;1.57;;;30.00;26.20;;;;;;5012080;28;20855;-84
2022/03/19 11:31:24;;;;;;;3.47;1.53;;;30.70;25.70;;;;;;5004122;28;20460;-85
2022/03/19 11:33:56;;;;;;;7.13;1.47;;;31.40;25.80;;;;;;5003713;28;20544;-85
2022/03/19 11:36:24;;;;;;;9.90;2.00;;;31.80;25.20;;;;;;5000124;28;21046;-85
2022/03/19 11:38:52;;;;;;;2.77;1.43;;;32.40;24.80;;;;;;5001341;28;20453;-83
2022/03/19 11:41:23;;;;;;;8.03;1.67;;;32.80;24.20;;;;;;5003140;28;20447;-82
2022/03/19 11:43:54;;;;;;;5.80;2.00;;;33.30;24.50;;;;;;5003287;28;20473;-84
2022/03/19 11:46:22;;;;;;;10.83;1.30;;;33.70;24.70;;;;;;5003853;28;20484;-83
2022/03/19 11:48:51;;;;;;;3.10;1.40;;;34.10;24.80;;;;;;5003743;28;20476;-84
2022/03/19 11:51:37;;;;;;;4.17;1.70;;;34.40;24.30;;;;;;5002336;28;20449;-83
2022/03/19 11:54:06;;;;;;;2.17;1.17;;;34.60;23.60;;;;;;5003720;28;20495;-84
2022/03/19 11:57:14;;;;;;;2.47;1.30;;;34.60;23.20;;;;;;5004191;28;20466;-84
2022/03/19 11:59:45;;;;;;;5.30;1.60;;;34.80;22.90;;;;;;4998652;28;20476;-83
2022/03/19 12:02:14;;;;;;;7.27;1.70;;;35.00;22.50;;;;;;5004844;28;20441;-85
2022/03/19 12:04:45;;;;;;;2.07;1.20;;;35.00;22.40;;;;;;5008215;28;20536;-84
2022/03/19 12:07:29;;;;;;;5.00;1.40;;;35.20;22.10;;;;;;5007711;28;20505;-85
2022/03/19 12:10:01;;;;;;;1.80;0.93;;;35.30;21.90;;;;;;5006807;28;20441;-85
2022/03/19 12:12:35;;;;;;;1.80;1.17;;;35.40;21.70;;;;;;5009363;28;20444;-84
2022/03/19 12:15:36;;;;;;;0.87;0.87;;;35.30;21.30;;;;;;5010963;28;20477;-85
2022/03/19 12:18:22;;;;;;;1.70;1.20;;;35.40;21.10;;;;;;5008571;28;20437;-84
2022/03/19 12:20:50;;;;;;;1.70;1.27;;;35.50;21.00;;;;;;5008908;28;20460;-85
2022/03/19 12:23:20;;;;;;;6.90;1.30;;;35.60;20.90;;;;;;5008141;28;20457;-85
2022/03/19 12:25:51;;;;;;;2.57;1.10;;;35.70;20.90;;;;;;5008281;28;20450;-84
2022/03/19 12:28:19;;;;;;;1.87;1.00;;;35.80;20.80;;;;;;5006953;28;20456;-84
2022/03/19 12:30:47;;;;;;;5.67;1.60;;;35.90;20.70;;;;;;5007256;28;20441;-85
2022/03/19 12:33:16;;;;;;;3.10;1.30;;;36.00;20.70;;;;;;5006468;28;20465;-84
2022/03/19 12:35:47;;;;;;;2.03;1.10;;;36.00;20.50;;;;;;5005655;28;20476;-84
2022/03/19 12:38:25;;;;;;;2.00;0.90;;;36.10;20.40;;;;;;5006627;28;20511;-85
2022/03/19 12:43:39;;;;;;;4.10;1.30;;;36.20;20.20;;;;;;5007364;28;20464;-85
2022/03/19 12:46:07;;;;;;;4.47;2.50;;;36.30;20.10;;;;;;5007004;28;20496;-84
2022/03/19 12:48:39;;;;;;;3.50;2.60;;;36.30;19.80;;;;;;5006660;28;20445;-84
2022/03/19 12:51:07;;;;;;;3.73;2.97;;;36.40;19.70;;;;;;5007030;28;20449;-83
2022/03/19 12:53:37;;;;;;;4.10;2.97;;;36.60;19.70;;;;;;5005733;28;20468;-84
2022/03/19 12:56:13;;;;;;;7.10;2.90;;;36.60;19.30;;;;;;4996207;28;20511;-83
2022/03/19 12:58:42;;;;;;;3.43;2.50;;;36.70;19.10;;;;;;5005659;28;20881;-84
2022/03/19 13:01:11;;;;;;;4.33;2.63;;;36.60;18.80;;;;;;5005998;28;20460;-84
2022/03/19 13:03:41;;;;;;;4.50;2.37;;;36.60;19.10;;;;;;5004691;28;20444;-84
2022/03/19 13:06:09;;;;;;;3.13;1.93;;;36.80;19.20;;;;;;5006062;28;20468;-84
2022/03/19 13:08:56;;;;;;;4.03;2.07;;;36.80;19.30;;;;;;5122930;27;20562;-85
2022/03/19 13:11:25;;;;;;;1.90;1.80;;;36.90;19.40;;;;;;5121449;28;20491;-85
2022/03/19 13:13:53;;;;;;;10.47;2.57;;;36.80;19.20;;;;;;5120595;28;20482;-84
2022/03/19 13:16:33;;;;;;;2.13;1.70;;;36.70;19.60;;;;;;5117235;28;20780;-83
2022/03/19 13:19:02;;;;;;;3.70;1.80;;;36.30;19.90;;;;;;5116057;28;20506;-83